createdAt,value
2022-08-25T00:47:20.890Z,1.00
2022-08-25T00:50:00.921Z,1.00
2022-08-25T00:52:54.002Z,1.00
2022-08-25T00:55:31.367Z,99.90
2022-08-25T00:58:19.207Z,1.00
2022-08-25T01:00:50.337Z,99.90
2022-08-25T01:03:19.804Z,99.90
2022-08-25T01:05:48.114Z,1.00
2022-08-25T01:08:18.420Z,1.00
2022-08-25T01:10:47.212Z,1.00
2022-08-25T01:13:24.541Z,99.90
2022-08-25T01:15:56.001Z,1.00
2022-08-25T01:18:24.337Z,99.90
2022-08-25T01:20:59.762Z,1.00
2022-08-25T01:23:27.530Z,8.30
2022-08-25T01:26:16.382Z,99.90
2022-08-25T01:29:05.497Z,99.90
2022-08-25T01:31:34.384Z,99.90
2022-08-25T01:34:01.608Z,1.00
2022-08-25T01:36:30.125Z,99.90
2022-08-25T01:38:57.763Z,1.00
2022-08-25T01:42:05.405Z,99.90
2022-08-25T01:44:35.908Z,81.10
2022-08-25T01:47:04.772Z,77.90
2022-08-25T01:49:32.567Z,99.90
2022-08-25T01:52:21.361Z,81.10
2022-08-25T01:54:49.154Z,99.90
2022-08-25T01:57:16.586Z,91.30
2022-08-25T01:59:44.855Z,99.90
2022-08-25T02:02:12.293Z,3.40
2022-08-25T02:04:39.621Z,1.00
2022-08-25T02:07:11.575Z,39.60
2022-08-25T02:09:39.302Z,1.00
2022-08-25T02:12:09.188Z,1.00
2022-08-25T02:14:37.216Z,1.00
2022-08-25T02:17:05.764Z,1.00
2022-08-25T02:19:33.014Z,51.50
2022-08-25T02:22:00.998Z,1.00
2022-08-25T02:24:28.484Z,1.00
2022-08-25T02:26:55.604Z,99.90
2022-08-25T02:29:22.792Z,99.90
2022-08-25T02:31:50.214Z,99.90
2022-08-25T02:34:17.545Z,1.00
2022-08-25T02:36:44.618Z,99.90
2022-08-25T02:39:12.513Z,1.00
2022-08-25T02:41:39.697Z,1.00
2022-08-25T02:44:08.332Z,1.00
2022-08-25T02:46:36.902Z,1.00
2022-08-25T02:49:05.331Z,1.00
2022-08-25T02:51:33.597Z,1.00
2022-08-25T02:54:02.634Z,1.00
2022-08-25T02:56:31.577Z,1.00
2022-08-25T02:58:59.969Z,99.90
2022-08-25T03:43:51.113Z,1.00
2022-08-25T03:48:58.041Z,99.90
2022-08-25T03:51:36.062Z,1.00
2022-08-25T03:54:04.949Z,1.00
2022-08-25T03:56:32.017Z,1.00
2022-08-25T03:59:00.582Z,1.00
2022-08-25T04:01:28.390Z,43.10
2022-08-25T04:03:55.886Z,95.50
2022-08-25T04:06:23.527Z,99.90
2022-08-25T04:08:52.618Z,99.90
2022-08-25T04:11:22.853Z,99.90
2022-08-25T04:13:51.925Z,99.90
2022-08-25T04:16:23.110Z,99.90
2022-08-25T04:18:51.621Z,99.90
2022-08-25T04:41:14.901Z,1.00
2022-08-25T04:43:44.000Z,1.00
2022-08-25T04:46:24.459Z,1.00
2022-08-25T04:48:53.911Z,1.00
2022-08-25T04:51:26.072Z,1.00
2022-08-25T04:53:53.576Z,1.00
2022-08-25T04:56:26.190Z,1.00
2022-08-25T04:58:55.393Z,1.00
2022-08-25T05:01:25.531Z,1.00
2022-08-25T05:03:57.220Z,1.00
2022-08-25T05:06:24.512Z,1.00
2022-08-25T05:08:52.065Z,1.00
2022-08-25T05:11:19.656Z,1.00
2022-08-25T05:13:51.233Z,1.00
2022-08-25T05:16:20.692Z,1.00
2022-08-25T05:18:48.103Z,1.00
2022-08-25T05:21:19.576Z,1.00
2022-08-25T05:23:47.573Z,1.00
2022-08-25T05:26:20.776Z,1.00
2022-08-25T05:28:51.279Z,1.00
2022-08-25T05:31:20.012Z,99.90
2022-08-25T05:33:47.432Z,1.00
2022-08-25T05:36:16.237Z,1.00
2022-08-25T05:38:43.557Z,99.90
2022-08-25T05:41:20.710Z,99.90
2022-08-25T05:43:49.804Z,1.00
2022-08-25T05:46:19.921Z,1.00
2022-08-25T05:48:47.835Z,1.00
2022-08-25T05:51:16.058Z,1.00
2022-08-25T05:53:46.280Z,1.00
2022-08-25T05:56:14.581Z,1.00
2022-08-25T05:58:43.088Z,1.00
2022-08-25T06:01:30.521Z,1.00
2022-08-25T06:03:57.567Z,1.00
2022-08-25T06:06:24.875Z,1.00
2022-08-25T06:08:52.316Z,99.90
2022-08-25T06:11:19.623Z,99.90
2022-08-25T06:13:46.633Z,99.90
2022-08-25T06:16:13.726Z,99.90
2022-08-25T06:18:40.786Z,99.90
2022-08-25T06:21:13.393Z,99.90
2022-08-25T06:23:41.553Z,99.90
2022-08-25T06:26:13.179Z,99.90
2022-08-25T06:28:51.646Z,99.90
2022-08-25T06:31:20.465Z,99.90
2022-08-25T06:33:48.010Z,99.90
2022-08-25T06:36:15.689Z,99.90
2022-08-25T06:38:42.853Z,99.90
2022-08-25T06:41:12.840Z,99.90
2022-08-25T06:43:48.091Z,99.90
2022-08-25T06:46:31.707Z,99.90
2022-08-25T06:49:08.125Z,99.90
2022-08-25T06:51:36.179Z,99.90
2022-08-25T06:54:06.288Z,99.90
2022-08-25T06:56:34.250Z,99.90
2022-08-25T06:59:05.434Z,99.90
2022-08-25T07:01:33.257Z,99.90
2022-08-25T07:04:02.945Z,99.90
2022-08-25T07:06:33.081Z,99.90
2022-08-25T07:09:00.363Z,99.90
2022-08-25T07:11:28.271Z,99.90
2022-08-25T07:13:55.293Z,99.90
2022-08-25T07:16:22.466Z,99.90
2022-08-25T07:18:50.755Z,99.90
2022-08-25T07:21:21.814Z,99.90
2022-08-25T07:23:52.388Z,99.90
2022-08-25T07:26:37.317Z,99.90
2022-08-25T07:29:13.336Z,99.90
2022-08-25T07:31:41.366Z,99.90
2022-08-25T07:34:28.340Z,99.90
2022-08-25T07:36:57.458Z,99.90
2022-08-25T07:39:26.789Z,99.90
2022-08-25T07:41:57.294Z,99.90
2022-08-25T07:44:28.089Z,99.90
2022-08-25T07:46:56.032Z,99.90
2022-08-25T07:49:25.352Z,99.90
2022-08-25T07:52:05.203Z,99.90
2022-08-25T07:54:38.081Z,99.90
2022-08-25T07:57:08.405Z,99.90
2022-08-25T07:59:42.735Z,99.90
2022-08-25T08:02:16.020Z,99.90
2022-08-25T08:04:50.594Z,99.90
2022-08-25T08:07:27.670Z,99.90
2022-08-25T08:13:01.638Z,99.90
2022-08-25T08:15:30.189Z,99.90
2022-08-25T08:17:59.312Z,99.90
2022-08-25T08:20:27.288Z,99.90
2022-08-25T08:22:54.606Z,99.90
2022-08-25T08:25:26.656Z,99.90
2022-08-25T08:27:56.224Z,99.90
2022-08-25T08:30:26.333Z,99.90
2022-08-25T08:33:12.048Z,99.90
2022-08-25T08:35:41.229Z,99.90
2022-08-25T08:38:14.943Z,99.90
2022-08-25T08:41:33.892Z,99.90
2022-08-25T08:44:24.941Z,99.90
2022-08-25T08:47:33.422Z,99.90
2022-08-25T08:51:01.097Z,99.90
2022-08-25T08:53:55.305Z,99.90
2022-08-25T08:56:25.905Z,99.90
2022-08-25T08:59:05.137Z,99.90
2022-08-25T09:01:41.639Z,99.90
2022-08-25T09:04:20.063Z,99.90
2022-08-25T09:06:49.900Z,99.90
2022-08-25T09:12:07.085Z,99.90
2022-08-25T09:17:57.912Z,1.00
2022-08-25T09:39:21.178Z,99.90
2022-08-25T09:42:01.543Z,99.90
2022-08-25T09:44:33.380Z,99.90
2022-08-25T09:47:26.051Z,99.90
2022-08-25T09:52:41.125Z,99.90
2022-08-25T09:55:08.386Z,99.90
2022-08-25T09:57:43.143Z,99.90
2022-08-25T10:00:31.177Z,99.90
2022-08-25T10:03:22.704Z,99.90
2022-08-25T10:06:13.675Z,99.90
2022-08-25T10:08:43.454Z,99.90
2022-08-25T10:11:31.325Z,99.90
2022-08-25T10:14:26.255Z,99.90
2022-08-25T10:16:54.494Z,99.90
2022-08-25T10:19:30.782Z,99.90
2022-08-25T10:22:25.851Z,99.90
2022-08-25T10:28:04.308Z,99.90
2022-08-25T10:31:16.202Z,99.90
2022-08-25T10:33:51.261Z,99.90
2022-08-25T10:36:33.154Z,99.90
2022-08-25T10:39:02.187Z,99.90
2022-08-25T10:42:01.038Z,99.90
2022-08-25T10:45:35.680Z,99.90
2022-08-25T10:48:22.322Z,99.90
2022-08-25T10:54:11.989Z,99.90
2022-08-25T10:56:44.625Z,99.90
2022-08-25T11:00:05.819Z,99.90
2022-08-25T11:03:26.817Z,99.90
2022-08-25T11:06:02.014Z,99.90
2022-08-25T11:08:36.064Z,99.90
2022-08-25T11:11:39.372Z,99.90
2022-08-25T11:14:21.409Z,99.90
2022-08-25T11:16:56.009Z,99.90
2022-08-25T11:19:47.223Z,99.90
2022-08-25T11:28:08.200Z,99.90
2022-08-25T11:30:35.251Z,99.90
2022-08-25T11:33:02.383Z,99.90
2022-08-25T11:35:54.791Z,99.90
2022-08-25T11:39:04.705Z,99.90
2022-08-25T11:41:59.060Z,99.90
2022-08-25T11:44:53.135Z,99.90
2022-08-25T11:47:44.630Z,99.90
2022-08-25T11:50:36.497Z,99.90
2022-08-25T11:53:30.241Z,99.90
2022-08-25T11:58:51.853Z,99.90
2022-08-25T12:01:40.490Z,99.90
2022-08-25T12:04:45.007Z,99.90
2022-08-25T12:07:22.130Z,99.90
2022-08-25T12:12:41.821Z,99.90
2022-08-25T12:15:57.238Z,99.90
2022-08-25T12:18:27.351Z,99.90
2022-08-25T12:23:45.207Z,99.90
2022-08-25T12:26:39.139Z,99.90
2022-08-25T12:29:23.394Z,99.90
2022-08-25T12:32:15.399Z,99.90
2022-08-25T12:35:29.844Z,99.90
2022-08-25T12:38:05.926Z,99.90
2022-08-25T12:40:54.470Z,99.90
2022-08-25T12:43:38.081Z,99.90
2022-08-25T12:46:23.243Z,99.90
2022-08-25T12:48:57.452Z,99.90
2022-08-25T12:51:40.377Z,99.90
2022-08-25T12:54:59.651Z,99.90
2022-08-25T12:57:52.323Z,99.90
2022-08-25T13:00:33.433Z,99.90
2022-08-25T13:03:21.717Z,99.90
2022-08-25T13:06:22.425Z,99.90
2022-08-25T13:09:17.114Z,99.90
2022-08-25T13:11:56.561Z,99.90
2022-08-25T13:22:16.784Z,99.90
2022-08-25T13:24:47.430Z,99.90
2022-08-25T13:27:41.377Z,99.90
2022-08-25T13:30:31.353Z,99.90
2022-08-25T13:32:58.842Z,99.90
2022-08-25T13:35:32.925Z,99.90
2022-08-25T13:38:15.429Z,99.90
2022-08-25T13:40:43.217Z,99.90
2022-08-25T13:43:14.359Z,99.90
2022-08-25T13:45:47.642Z,99.90
2022-08-25T13:48:36.101Z,99.90
2022-08-25T13:51:31.346Z,99.90
2022-08-25T13:54:04.579Z,99.90
2022-08-25T13:56:41.571Z,99.90
2022-08-25T13:59:40.261Z,99.90
2022-08-25T14:02:19.655Z,99.90
2022-08-25T14:04:51.534Z,99.90
2022-08-25T14:07:22.779Z,99.90
2022-08-25T14:10:10.275Z,99.90
2022-08-25T14:25:57.806Z,99.90
2022-08-25T14:28:29.286Z,99.90
2022-08-25T14:31:14.387Z,99.90
2022-08-25T14:33:59.109Z,99.90
2022-08-25T14:36:26.780Z,99.90
2022-08-25T14:38:56.879Z,99.90
2022-08-25T14:41:26.566Z,99.90
2022-08-25T14:43:54.264Z,99.90
2022-08-25T14:46:29.353Z,99.90
2022-08-25T14:49:03.367Z,99.90
2022-08-25T14:51:32.597Z,99.90
2022-08-25T14:54:07.321Z,99.90
2022-08-25T14:56:36.120Z,99.90
2022-08-25T14:59:04.875Z,99.90
2022-08-25T15:01:32.027Z,99.90
2022-08-25T15:04:06.219Z,99.90
2022-08-25T15:06:36.236Z,99.90
2022-08-25T15:09:10.919Z,99.90
2022-08-25T15:11:54.692Z,99.90
2022-08-25T15:14:29.143Z,99.90
2022-08-25T15:17:01.605Z,99.90
2022-08-25T15:19:29.551Z,99.90
2022-08-25T15:24:27.176Z,99.90
2022-08-25T15:27:00.826Z,99.90
2022-08-25T15:29:30.878Z,99.90
2022-08-25T15:32:00.282Z,99.90
2022-08-25T15:34:28.897Z,99.90
2022-08-25T15:36:58.371Z,99.90
2022-08-25T15:39:26.665Z,99.90
2022-08-25T15:41:54.106Z,99.90
2022-08-25T15:44:25.050Z,99.90
2022-08-25T15:46:53.489Z,99.90
2022-08-25T15:49:24.184Z,99.90
2022-08-25T15:51:54.431Z,99.90
2022-08-25T15:54:26.745Z,99.90
2022-08-25T15:56:55.297Z,99.90
2022-08-25T15:59:22.629Z,99.90
2022-08-25T16:01:55.548Z,99.90
2022-08-25T16:04:24.973Z,99.90
2022-08-25T16:06:53.019Z,99.90
2022-08-25T16:09:23.001Z,99.90
2022-08-25T16:11:56.678Z,99.90
2022-08-25T16:14:27.667Z,99.90
2022-08-25T16:16:58.568Z,99.90
2022-08-25T16:19:28.833Z,99.90
2022-08-25T16:21:56.177Z,99.90
2022-08-25T16:24:23.229Z,99.90
2022-08-25T16:26:51.815Z,99.90
2022-08-25T16:29:20.114Z,99.90
2022-08-25T16:31:53.190Z,99.90
2022-08-25T16:34:24.777Z,99.90
2022-08-25T16:36:55.955Z,99.90
2022-08-25T16:39:23.874Z,99.90
2022-08-25T16:41:52.444Z,99.90
2022-08-25T16:44:21.417Z,99.90
2022-08-25T16:46:50.130Z,99.90
2022-08-25T16:49:17.988Z,99.90
2022-08-25T16:51:45.164Z,99.90
2022-08-25T16:54:32.959Z,99.90
2022-08-25T16:57:00.676Z,99.90
2022-08-25T16:59:27.791Z,99.90
2022-08-25T17:01:54.922Z,99.90
2022-08-25T17:04:27.630Z,99.90
